TR-0044 weather

Çukurova Airport
Tarsus, Icel Province, Turkey

Public forecast

Using degrees Celsius for public forecast. Weather courtesy of forecast.io.

Closest aviation weather report (METAR) to Çukurova Airport

Closest report is Adana Airport, 11.4 nm (21.1 km) ENE. Retrieved 2019/12/07 11:20 UTC (0 seconds ago):

LTAF 071120Z 15004KT 110V190 CAVOK 18/03 Q1016 NOSIG RMK RWY23 VRB02KT

Closest aviation forecast (TAF) to Çukurova Airport

Closest forecast is Adana Airport, 11.4 nm (21.1 km) ENE. Retrieved 2019/12/07 06:00 UTC (5 hours ago):

TAF LTAF 070440Z 0706/0806 VRB02KT CAVOK BECMG 0714/0716 4000 BR BECMG 0719/0721 CAVOK